Time;durP1;ratioP1;P1;durP2;ratioP2;P2;SDS_P1;SDS_P2;PMS_P1;PMS_P2;Temp;Humidity;BMP_temperature;BMP_pressure;BME280_temperature;BME280_humidity;BME280_pressure;Samples;Min_cycle;Max_cycle;Signal;HPM_P1;HPM_P2
2023/04/08 00:00:48;;;;;;;14.40;8.70;;;11.60;99.90;;;;;;5032921;28;20201;-79
2023/04/08 00:03:14;;;;;;;12.18;9.43;;;11.60;99.90;;;;;;5033057;28;20647;-79
2023/04/08 00:05:40;;;;;;;11.32;8.38;;;11.60;99.90;;;;;;5031172;28;20225;-79
2023/04/08 00:08:06;;;;;;;13.63;8.17;;;11.70;99.90;;;;;;5032372;28;20200;-78
2023/04/08 00:10:32;;;;;;;12.17;8.47;;;11.70;99.90;;;;;;5031355;28;20201;-78
2023/04/08 00:12:59;;;;;;;11.13;9.50;;;11.70;99.90;;;;;;5014550;28;20203;-78
2023/04/08 00:15:25;;;;;;;14.10;9.15;;;11.70;99.90;;;;;;5031242;28;20638;-78
2023/04/08 00:17:53;;;;;;;10.10;8.30;;;11.70;99.90;;;;;;5031403;28;20177;-78
2023/04/08 00:20:20;;;;;;;11.18;8.70;;;11.70;99.90;;;;;;5025525;28;20170;-78
2023/04/08 00:22:45;;;;;;;11.43;8.82;;;11.70;99.90;;;;;;5011435;28;20188;-78
2023/04/08 00:25:11;;;;;;;15.17;9.90;;;11.70;99.90;;;;;;5011647;28;20210;-79
2023/04/08 00:27:37;;;;;;;12.73;8.50;;;11.70;99.90;;;;;;5012368;28;20189;-78
2023/04/08 00:30:03;;;;;;;19.27;11.53;;;11.80;99.90;;;;;;5012978;28;20616;-78
2023/04/08 00:32:29;;;;;;;11.80;9.65;;;11.70;99.90;;;;;;4994472;28;20206;-78
2023/04/08 00:34:55;;;;;;;9.53;7.60;;;11.80;99.90;;;;;;5011205;28;20264;-78
2023/04/08 00:37:22;;;;;;;17.00;9.70;;;11.80;99.90;;;;;;5012104;28;20534;-78
2023/04/08 00:39:47;;;;;;;13.43;10.00;;;11.80;99.90;;;;;;5012679;28;20580;-78
2023/04/08 00:42:13;;;;;;;13.30;9.83;;;11.80;99.90;;;;;;5011692;28;20532;-79
2023/04/08 00:44:39;;;;;;;12.00;9.32;;;11.80;99.90;;;;;;5011222;28;20209;-78
2023/04/08 00:47:05;;;;;;;17.50;9.53;;;11.80;99.90;;;;;;5010844;28;20197;-79
2023/04/08 00:49:31;;;;;;;19.83;10.00;;;11.80;99.90;;;;;;4994642;28;20174;-79
2023/04/08 00:51:59;;;;;;;12.23;9.13;;;11.80;99.90;;;;;;5018476;28;20601;-78
2023/04/08 00:54:25;;;;;;;19.70;10.63;;;11.80;99.90;;;;;;5010128;28;20197;-79
2023/04/08 00:56:51;;;;;;;17.95;9.50;;;11.80;99.90;;;;;;5013985;28;20202;-79
2023/04/08 00:59:17;;;;;;;12.17;8.87;;;11.90;99.90;;;;;;5031741;28;20174;-79
2023/04/08 01:01:54;;;;;;;10.70;9.60;;;11.90;99.90;;;;;;5005938;28;20190;-79
2023/04/08 01:04:43;;;;;;;12.40;9.40;;;11.80;99.90;;;;;;5010964;28;20208;-75
2023/04/08 01:07:25;;;;;;;10.77;9.20;;;11.80;99.90;;;;;;4994647;28;20682;-74
2023/04/08 01:09:55;;;;;;;12.07;9.43;;;11.80;99.90;;;;;;4977804;28;20225;-74
2023/04/08 01:12:29;;;;;;;18.17;9.60;;;11.80;99.90;;;;;;4999093;28;20277;-75
2023/04/08 01:15:06;;;;;;;10.73;9.63;;;11.80;99.90;;;;;;5004754;28;20224;-74
2023/04/08 01:17:35;;;;;;;17.02;10.35;;;11.80;99.90;;;;;;5011548;28;20186;-75
2023/04/08 01:20:03;;;;;;;15.70;9.63;;;11.80;99.90;;;;;;5009369;28;20174;-74
2023/04/08 01:22:59;;;;;;;15.18;10.13;;;11.80;99.90;;;;;;5010337;28;20182;-74
2023/04/08 01:25:32;;;;;;;12.05;9.52;;;11.80;99.90;;;;;;4993944;28;20210;-74
2023/04/08 01:28:02;;;;;;;14.25;9.93;;;11.80;99.90;;;;;;5011951;28;20242;-74
2023/04/08 01:30:29;;;;;;;11.63;9.43;;;11.80;99.90;;;;;;4986982;28;20225;-75
2023/04/08 01:32:58;;;;;;;17.45;10.45;;;11.80;99.90;;;;;;4993907;28;20571;-74
2023/04/08 01:35:24;;;;;;;15.98;9.70;;;11.80;99.90;;;;;;4993591;28;20212;-75
2023/04/08 01:37:51;;;;;;;12.63;8.80;;;11.70;99.90;;;;;;5011563;28;20265;-74
2023/04/08 01:40:20;;;;;;;16.25;9.85;;;11.70;99.90;;;;;;4994082;28;20226;-74
2023/04/08 01:42:48;;;;;;;16.65;10.35;;;11.70;99.90;;;;;;5010891;28;20535;-74
2023/04/08 01:45:15;;;;;;;10.90;9.68;;;11.70;99.90;;;;;;5010272;28;20206;-74
2023/04/08 01:47:42;;;;;;;11.13;9.60;;;11.70;99.90;;;;;;5011021;28;20170;-74
2023/04/08 01:50:12;;;;;;;19.63;9.65;;;11.70;99.90;;;;;;4993892;28;20174;-74
2023/04/08 01:52:39;;;;;;;14.50;7.97;;;11.60;99.90;;;;;;5010974;28;20237;-74
2023/04/08 01:55:05;;;;;;;12.52;8.80;;;11.70;99.90;;;;;;4993589;28;20182;-74
2023/04/08 01:57:34;;;;;;;12.65;9.15;;;11.60;99.90;;;;;;5009923;28;20174;-74
2023/04/08 02:00:05;;;;;;;14.70;9.10;;;11.70;99.90;;;;;;4993828;28;20185;-74
2023/04/08 02:02:46;;;;;;;11.23;9.82;;;11.60;99.90;;;;;;5009554;28;20213;-74
2023/04/08 02:05:13;;;;;;;14.13;8.90;;;11.60;99.90;;;;;;4993530;28;20202;-75
2023/04/08 02:07:39;;;;;;;17.55;10.00;;;11.70;99.90;;;;;;4993935;28;20206;-74
2023/04/08 02:10:05;;;;;;;15.60;9.50;;;11.60;99.90;;;;;;4993430;28;20252;-74
2023/04/08 02:12:32;;;;;;;12.10;8.50;;;11.60;99.90;;;;;;4992903;28;20585;-74
2023/04/08 02:14:58;;;;;;;10.80;9.68;;;11.60;99.90;;;;;;4993496;28;20180;-74
2023/04/08 02:17:36;;;;;;;10.97;9.23;;;11.60;99.90;;;;;;5010078;28;20703;-74
2023/04/08 02:20:16;;;;;;;16.70;11.05;;;11.60;99.90;;;;;;5006315;28;20602;-74
2023/04/08 02:22:47;;;;;;;16.58;10.45;;;11.60;99.90;;;;;;5010630;28;20174;-74
2023/04/08 02:25:15;;;;;;;20.92;10.85;;;11.60;99.90;;;;;;4993224;28;20213;-74
2023/04/08 02:27:42;;;;;;;16.25;11.25;;;11.60;99.90;;;;;;5010003;28;20170;-75
2023/04/08 02:30:10;;;;;;;15.10;10.30;;;11.60;99.90;;;;;;4993055;28;20280;-74
2023/04/08 02:32:37;;;;;;;14.52;9.88;;;11.60;99.90;;;;;;5014935;28;20169;-74
2023/04/08 02:35:04;;;;;;;19.83;12.18;;;11.60;99.90;;;;;;4996557;28;20193;-74
2023/04/08 02:37:31;;;;;;;19.30;10.75;;;11.60;99.90;;;;;;4997270;28;20647;-74
2023/04/08 02:39:57;;;;;;;18.88;12.00;;;11.60;99.90;;;;;;5013313;28;20188;-74
2023/04/08 02:42:23;;;;;;;14.70;12.48;;;11.50;99.90;;;;;;4997036;28;20174;-75
2023/04/08 02:44:51;;;;;;;16.50;11.43;;;11.50;99.90;;;;;;5013222;28;20611;-74
2023/04/08 02:47:17;;;;;;;17.20;11.60;;;11.50;99.90;;;;;;4997215;28;20198;-74
2023/04/08 02:49:43;;;;;;;13.95;11.65;;;11.50;99.90;;;;;;4997329;28;20205;-75
2023/04/08 02:52:09;;;;;;;17.37;12.13;;;11.50;99.90;;;;;;4996369;28;20209;-74
2023/04/08 02:54:35;;;;;;;19.30;11.90;;;11.50;99.90;;;;;;4997255;28;20174;-74
2023/04/08 02:57:01;;;;;;;15.57;11.60;;;11.40;99.90;;;;;;4996520;28;20623;-74
2023/04/08 02:59:27;;;;;;;16.97;12.13;;;11.50;99.90;;;;;;5013435;28;20549;-74
2023/04/08 03:01:52;;;;;;;15.63;12.70;;;11.50;99.90;;;;;;4996232;28;20644;-74
2023/04/08 03:04:18;;;;;;;16.10;11.67;;;11.50;99.90;;;;;;5014630;28;20198;-74
2023/04/08 03:06:43;;;;;;;16.77;13.07;;;11.40;99.90;;;;;;5014204;28;20277;-75
2023/04/08 03:09:09;;;;;;;16.83;12.27;;;11.50;99.90;;;;;;4996701;28;20254;-74
2023/04/08 03:11:35;;;;;;;16.40;12.87;;;11.50;99.90;;;;;;5013562;28;20163;-74
2023/04/08 03:14:01;;;;;;;17.33;13.47;;;11.50;99.90;;;;;;5012883;28;20182;-74
2023/04/08 03:16:26;;;;;;;16.00;12.03;;;11.50;99.90;;;;;;5013782;28;20301;-74
2023/04/08 03:18:52;;;;;;;18.40;12.60;;;11.40;99.90;;;;;;5012491;28;20585;-75
2023/04/08 03:21:18;;;;;;;16.80;13.03;;;11.40;99.90;;;;;;4995989;28;20179;-74
2023/04/08 03:23:44;;;;;;;16.97;13.07;;;11.40;99.90;;;;;;5013856;28;20607;-75
2023/04/08 03:26:10;;;;;;;18.07;12.27;;;11.40;99.90;;;;;;5012890;28;20611;-74
2023/04/08 03:28:36;;;;;;;18.23;13.10;;;11.40;99.90;;;;;;5012480;28;21170;-74
2023/04/08 03:31:04;;;;;;;20.43;12.60;;;11.40;99.90;;;;;;5013969;28;20655;-74
2023/04/08 03:33:30;;;;;;;20.40;11.55;;;11.40;99.90;;;;;;5013598;28;20186;-74
2023/04/08 03:35:56;;;;;;;17.87;11.53;;;11.50;99.90;;;;;;5012490;28;20646;-74
2023/04/08 03:38:21;;;;;;;17.83;11.93;;;11.40;99.90;;;;;;5013577;28;21019;-74
2023/04/08 03:40:47;;;;;;;16.30;13.53;;;11.40;99.90;;;;;;5013898;28;20196;-74
2023/04/08 03:43:13;;;;;;;16.90;13.30;;;11.40;99.90;;;;;;5012505;28;20225;-75
2023/04/08 03:45:39;;;;;;;16.65;12.80;;;11.40;99.90;;;;;;5012168;28;20206;-75
2023/04/08 03:48:06;;;;;;;18.27;13.93;;;11.40;99.90;;;;;;5013723;28;20177;-74
2023/04/08 03:50:32;;;;;;;16.20;12.55;;;11.40;99.90;;;;;;5013341;28;21147;-74
2023/04/08 03:52:58;;;;;;;20.40;13.87;;;11.40;99.90;;;;;;4995410;28;20178;-74
2023/04/08 03:55:23;;;;;;;16.13;11.50;;;11.40;99.90;;;;;;5013172;28;20201;-74
2023/04/08 03:57:49;;;;;;;18.27;12.83;;;11.40;99.90;;;;;;5012465;28;20221;-74
2023/04/08 04:00:15;;;;;;;20.00;12.30;;;11.40;99.90;;;;;;5013213;28;20177;-75
2023/04/08 04:02:43;;;;;;;19.42;12.10;;;11.40;99.90;;;;;;5011698;28;20615;-74
2023/04/08 04:05:10;;;;;;;16.07;11.40;;;11.40;99.90;;;;;;5012935;28;20202;-74
2023/04/08 04:07:35;;;;;;;14.80;11.57;;;11.40;99.90;;;;;;5012234;28;20214;-74
2023/04/08 04:10:01;;;;;;;19.50;12.70;;;11.40;99.90;;;;;;5013395;28;20186;-74
2023/04/08 04:12:27;;;;;;;17.00;11.40;;;11.40;99.90;;;;;;5010994;28;20182;-74
2023/04/08 04:14:52;;;;;;;18.67;13.13;;;11.30;99.90;;;;;;5012880;28;20181;-74
2023/04/08 04:17:18;;;;;;;23.97;14.50;;;11.30;99.90;;;;;;5012835;28;20294;-74
2023/04/08 04:19:44;;;;;;;15.33;12.53;;;11.30;99.90;;;;;;5013116;28;20178;-75
2023/04/08 04:22:10;;;;;;;22.67;14.10;;;11.30;99.90;;;;;;5012254;28;20178;-75
2023/04/08 04:24:36;;;;;;;18.27;12.70;;;11.30;99.90;;;;;;5011718;28;20205;-75
2023/04/08 04:27:01;;;;;;;17.30;12.17;;;11.30;99.90;;;;;;5011561;28;20283;-75
2023/04/08 04:29:27;;;;;;;15.13;13.17;;;11.30;99.90;;;;;;5013121;28;20174;-74
2023/04/08 04:31:53;;;;;;;21.87;14.53;;;11.30;99.90;;;;;;5011977;28;20403;-74
2023/04/08 04:34:18;;;;;;;19.27;14.23;;;11.30;99.90;;;;;;5011295;28;20673;-75
2023/04/08 04:36:44;;;;;;;21.03;12.87;;;11.20;99.90;;;;;;4995211;28;20698;-73
2023/04/08 04:39:10;;;;;;;15.52;11.93;;;11.30;99.90;;;;;;5012308;28;20228;-74
2023/04/08 04:41:39;;;;;;;26.00;15.07;;;11.30;99.90;;;;;;5011162;28;20182;-74
2023/04/08 04:44:05;;;;;;;23.00;14.23;;;11.30;99.90;;;;;;5011064;28;20206;-74
2023/04/08 04:46:31;;;;;;;19.55;14.88;;;11.30;99.90;;;;;;5012564;28;20568;-74
2023/04/08 04:48:57;;;;;;;22.57;16.27;;;11.30;99.90;;;;;;4994559;28;20169;-75
2023/04/08 04:51:22;;;;;;;28.10;16.40;;;11.40;99.90;;;;;;5012091;28;20638;-74
2023/04/08 04:53:48;;;;;;;21.10;13.33;;;11.40;99.90;;;;;;5010550;28;20527;-74
2023/04/08 04:56:14;;;;;;;19.92;13.82;;;11.40;99.90;;;;;;5011004;28;20198;-74
2023/04/08 04:58:40;;;;;;;20.57;14.37;;;11.40;99.90;;;;;;5012001;28;20173;-74
2023/04/08 05:01:06;;;;;;;19.88;14.70;;;11.40;99.90;;;;;;5010928;28;20261;-74
2023/04/08 05:03:32;;;;;;;27.10;17.40;;;11.40;99.90;;;;;;5012438;28;20563;-75
2023/04/08 05:05:58;;;;;;;22.30;14.47;;;11.40;99.90;;;;;;5010322;28;20618;-74
2023/04/08 05:08:23;;;;;;;19.23;14.97;;;11.40;99.90;;;;;;5012005;28;20561;-74
2023/04/08 05:10:49;;;;;;;19.90;14.40;;;11.40;99.90;;;;;;5011221;28;20174;-75
2023/04/08 05:13:16;;;;;;;23.10;16.37;;;11.40;99.90;;;;;;5010466;28;20512;-74
2023/04/08 05:15:42;;;;;;;24.13;17.35;;;11.50;99.90;;;;;;5011530;28;20633;-74
2023/04/08 05:18:08;;;;;;;23.65;15.27;;;11.50;99.90;;;;;;5023587;28;20181;-74
2023/04/08 05:20:33;;;;;;;21.27;15.97;;;11.50;99.90;;;;;;5019905;28;20189;-74
2023/04/08 05:22:59;;;;;;;20.97;16.57;;;11.50;99.90;;;;;;5011807;28;20217;-74
2023/04/08 05:25:25;;;;;;;18.87;14.90;;;11.50;99.90;;;;;;5010492;28;20721;-74
2023/04/08 05:27:51;;;;;;;23.03;15.97;;;11.40;99.90;;;;;;5011950;28;20174;-75
2023/04/08 05:30:17;;;;;;;20.85;15.02;;;11.40;99.90;;;;;;5010568;28;20174;-75
2023/04/08 05:32:43;;;;;;;18.52;16.23;;;11.50;99.90;;;;;;5009956;28;20209;-75
2023/04/08 05:35:09;;;;;;;24.13;15.70;;;11.50;99.90;;;;;;5010108;28;20658;-75
2023/04/08 05:37:35;;;;;;;25.50;16.77;;;11.50;99.90;;;;;;5011482;28;20163;-75
2023/04/08 05:40:00;;;;;;;28.53;16.33;;;11.50;99.90;;;;;;5010607;28;20926;-75
2023/04/08 05:42:26;;;;;;;20.80;14.63;;;11.50;99.90;;;;;;4977366;28;20178;-75
2023/04/08 05:44:52;;;;;;;19.80;15.00;;;11.50;99.90;;;;;;4994031;28;20206;-75
2023/04/08 05:47:18;;;;;;;25.73;17.43;;;11.50;99.90;;;;;;4993631;28;20205;-75
2023/04/08 05:49:43;;;;;;;19.40;15.13;;;11.50;99.90;;;;;;5011479;28;20649;-75
2023/04/08 05:52:09;;;;;;;18.43;15.43;;;11.50;99.90;;;;;;5009724;28;20261;-75
2023/04/08 05:54:35;;;;;;;23.00;15.93;;;11.50;99.90;;;;;;5011481;28;20174;-75
2023/04/08 05:57:00;;;;;;;26.60;18.40;;;11.50;99.90;;;;;;5011654;28;20535;-75
2023/04/08 05:59:26;;;;;;;24.53;18.03;;;11.50;99.90;;;;;;5010902;28;20663;-75
2023/04/08 06:01:54;;;;;;;23.10;18.03;;;11.50;99.90;;;;;;5011355;28;21193;-75
2023/04/08 06:04:19;;;;;;;24.00;18.98;;;11.50;99.90;;;;;;4993473;28;20242;-75
2023/04/08 06:06:45;;;;;;;23.97;17.57;;;11.50;99.90;;;;;;5009088;28;20315;-75
2023/04/08 06:09:11;;;;;;;27.80;20.63;;;11.50;99.90;;;;;;4993073;28;20668;-75
2023/04/08 06:11:36;;;;;;;27.90;18.43;;;11.50;99.90;;;;;;5011182;28;20220;-75
2023/04/08 06:14:02;;;;;;;24.97;18.40;;;11.50;99.90;;;;;;5010937;28;20174;-74
2023/04/08 06:16:28;;;;;;;26.70;20.60;;;11.50;99.90;;;;;;5009914;28;20201;-75
2023/04/08 06:18:54;;;;;;;22.30;17.67;;;11.50;99.90;;;;;;5010112;28;20622;-74
2023/04/08 06:21:20;;;;;;;25.20;18.87;;;11.40;99.90;;;;;;5009180;28;20258;-74
2023/04/08 06:23:46;;;;;;;24.80;17.27;;;11.50;99.90;;;;;;5009712;28;20632;-75
2023/04/08 06:26:12;;;;;;;24.40;16.90;;;11.40;99.90;;;;;;5009326;28;20190;-74
2023/04/08 06:28:38;;;;;;;17.52;14.63;;;11.40;99.90;;;;;;5010058;28;20171;-74
2023/04/08 06:31:04;;;;;;;21.83;15.15;;;11.50;99.90;;;;;;4992736;28;20174;-74
2023/04/08 06:33:30;;;;;;;22.03;15.77;;;11.40;99.90;;;;;;5011381;28;21030;-74
2023/04/08 06:36:06;;;;;;;21.50;15.53;;;11.40;99.90;;;;;;4993213;28;20621;-74
2023/04/08 06:38:32;;;;;;;22.00;16.50;;;11.50;99.90;;;;;;5010120;28;21084;-75
2023/04/08 06:41:04;;;;;;;21.20;16.88;;;11.50;99.90;;;;;;4993372;28;20171;-75
2023/04/08 06:43:34;;;;;;;21.10;15.48;;;11.50;99.90;;;;;;4993879;28;20174;-75
2023/04/08 06:46:00;;;;;;;24.00;18.02;;;11.50;99.90;;;;;;5011193;28;20201;-75
2023/04/08 06:48:29;;;;;;;23.10;18.20;;;11.60;99.90;;;;;;5010250;28;20673;-75
2023/04/08 06:50:59;;;;;;;23.40;18.15;;;11.70;99.90;;;;;;5011748;28;20174;-75
2023/04/08 06:53:28;;;;;;;25.10;19.70;;;11.80;99.90;;;;;;5009966;28;20265;-75
2023/04/08 06:55:54;;;;;;;25.90;17.92;;;11.80;99.90;;;;;;5014157;28;20190;-75
2023/04/08 06:58:19;;;;;;;25.48;19.90;;;11.90;99.90;;;;;;5017308;28;20248;-75
2023/04/08 07:00:46;;;;;;;25.10;18.90;;;12.00;99.90;;;;;;5017610;28;20162;-74
2023/04/08 07:03:11;;;;;;;28.85;19.52;;;12.10;99.90;;;;;;5003778;28;20175;-74
2023/04/08 07:05:38;;;;;;;25.97;19.27;;;12.20;99.90;;;;;;5015472;28;20245;-75
2023/04/08 07:08:05;;;;;;;33.85;22.23;;;12.30;99.90;;;;;;5016351;28;20185;-74
2023/04/08 07:10:31;;;;;;;29.70;21.98;;;12.30;99.90;;;;;;5013115;23;20218;-73
2023/04/08 07:12:57;;;;;;;30.27;22.13;;;12.40;99.90;;;;;;4990401;28;20179;-78
2023/04/08 07:15:22;;;;;;;30.53;22.47;;;12.40;99.90;;;;;;4990136;28;20713;-77
2023/04/08 07:17:48;;;;;;;30.90;21.70;;;12.40;99.90;;;;;;4965857;28;20181;-75
2023/04/08 07:20:14;;;;;;;33.63;24.90;;;12.50;99.90;;;;;;4994107;28;20273;-80
2023/04/08 07:22:40;;;;;;;29.50;22.65;;;12.50;99.90;;;;;;4989630;28;20656;-80
2023/04/08 07:25:06;;;;;;;28.30;20.77;;;12.60;99.90;;;;;;4981279;28;20203;-80
2023/04/08 07:27:33;;;;;;;30.27;22.90;;;12.70;99.90;;;;;;4980414;28;20640;-80
2023/04/08 07:30:00;;;;;;;28.38;23.20;;;12.80;99.90;;;;;;4993805;28;20195;-80
2023/04/08 07:32:27;;;;;;;28.67;23.13;;;12.90;99.90;;;;;;4994329;28;20167;-80
2023/04/08 07:34:53;;;;;;;33.53;24.90;;;13.20;99.90;;;;;;4976645;28;20183;-80
2023/04/08 07:37:18;;;;;;;32.67;24.47;;;13.40;99.90;;;;;;4960922;28;20182;-80
2023/04/08 07:39:44;;;;;;;31.10;24.70;;;13.70;99.90;;;;;;4976823;28;20610;-81
2023/04/08 07:42:10;;;;;;;31.13;23.83;;;14.30;99.90;;;;;;4979437;28;20639;-78
2023/04/08 07:44:37;;;;;;;30.97;24.50;;;14.70;99.90;;;;;;4977731;28;20207;-77
2023/04/08 07:47:03;;;;;;;28.43;23.30;;;14.90;99.90;;;;;;4993704;28;20582;-77
2023/04/08 07:49:28;;;;;;;26.70;22.60;;;15.00;99.90;;;;;;4972482;28;20676;-77
2023/04/08 07:51:54;;;;;;;29.73;25.10;;;15.00;99.90;;;;;;4992989;28;20618;-77
2023/04/08 07:54:20;;;;;;;26.27;21.17;;;15.10;99.90;;;;;;4993854;28;20262;-78
2023/04/08 07:56:46;;;;;;;29.30;24.87;;;15.00;99.90;;;;;;4992992;28;20689;-78
2023/04/08 07:59:12;;;;;;;28.37;21.87;;;15.00;99.90;;;;;;4975826;28;20207;-77
2023/04/08 08:01:37;;;;;;;28.10;23.73;;;15.00;99.90;;;;;;4975085;28;20182;-77
2023/04/08 08:04:03;;;;;;;28.60;24.87;;;15.00;99.90;;;;;;4993232;28;20202;-78
2023/04/08 08:06:32;;;;;;;28.00;23.10;;;15.00;99.90;;;;;;4959588;28;20210;-77
2023/04/08 08:08:59;;;;;;;25.27;21.73;;;15.00;99.90;;;;;;4959706;28;20186;-78
2023/04/08 08:11:26;;;;;;;28.07;23.40;;;14.90;99.90;;;;;;4975297;28;20610;-78
2023/04/08 08:13:53;;;;;;;28.07;23.87;;;14.90;99.90;;;;;;4975229;28;20598;-77
2023/04/08 08:16:19;;;;;;;27.10;23.17;;;14.80;99.90;;;;;;4991830;28;20664;-78
2023/04/08 08:18:44;;;;;;;25.73;22.27;;;14.80;99.90;;;;;;4993151;28;20609;-78
2023/04/08 08:21:10;;;;;;;24.57;21.47;;;14.80;99.90;;;;;;4991703;28;21248;-77
2023/04/08 08:23:36;;;;;;;28.43;23.70;;;14.70;99.90;;;;;;4991154;28;20183;-76
2023/04/08 08:26:06;;;;;;;24.00;21.43;;;14.70;99.90;;;;;;4993074;28;20178;-77
2023/04/08 08:28:32;;;;;;;22.53;19.40;;;14.70;99.90;;;;;;4991599;28;20676;-76
2023/04/08 08:30:58;;;;;;;27.13;24.23;;;14.70;99.90;;;;;;4992798;28;20661;-75
2023/04/08 08:33:24;;;;;;;25.60;22.50;;;14.70;99.90;;;;;;4993630;28;20590;-77
2023/04/08 08:35:51;;;;;;;27.63;24.10;;;14.80;99.90;;;;;;4991552;28;20191;-77
2023/04/08 08:38:17;;;;;;;25.80;21.90;;;14.90;99.90;;;;;;4992891;28;20618;-76
2023/04/08 08:40:44;;;;;;;23.50;20.20;;;14.90;99.90;;;;;;4992342;28;21400;-76
2023/04/08 08:43:10;;;;;;;23.33;20.90;;;15.00;99.90;;;;;;4974971;28;20657;-76
2023/04/08 08:45:40;;;;;;;21.40;19.10;;;15.00;99.90;;;;;;5006666;28;20669;-76
2023/04/08 08:48:09;;;;;;;26.30;21.83;;;14.90;99.90;;;;;;4993028;28;20677;-76
2023/04/08 08:50:35;;;;;;;22.40;19.90;;;15.00;99.90;;;;;;4957774;28;20643;-76
2023/04/08 08:53:01;;;;;;;22.20;18.87;;;15.00;99.90;;;;;;4974946;28;20582;-76
2023/04/08 08:55:30;;;;;;;22.40;19.90;;;15.00;99.90;;;;;;4979358;28;21180;-76
2023/04/08 08:57:57;;;;;;;21.17;18.97;;;15.10;99.90;;;;;;4992953;28;20601;-76
2023/04/08 09:00:41;;;;;;;20.87;18.30;;;15.20;99.90;;;;;;4992437;28;21002;-76
2023/04/08 09:03:20;;;;;;;21.27;18.83;;;15.20;99.90;;;;;;4974975;28;20179;-75
2023/04/08 09:05:51;;;;;;;22.63;20.10;;;15.40;99.90;;;;;;4992446;28;20625;-75
2023/04/08 09:08:26;;;;;;;25.77;23.00;;;15.50;99.90;;;;;;4975474;28;20618;-76
2023/04/08 09:10:53;;;;;;;27.57;23.70;;;15.60;99.90;;;;;;4958820;28;20633;-78
2023/04/08 09:13:20;;;;;;;24.60;22.00;;;15.60;99.90;;;;;;4992572;28;21109;-77
2023/04/08 09:16:02;;;;;;;20.23;17.83;;;15.60;99.90;;;;;;4974847;28;20575;-77
2023/04/08 09:18:28;;;;;;;26.00;22.83;;;15.60;99.90;;;;;;4992731;28;20628;-77
2023/04/08 09:20:53;;;;;;;25.10;20.87;;;15.60;99.90;;;;;;4992521;28;21234;-77
2023/04/08 09:23:19;;;;;;;28.27;25.23;;;15.60;99.90;;;;;;4991769;28;20681;-77
2023/04/08 09:25:45;;;;;;;32.80;24.87;;;15.40;99.90;;;;;;4991940;28;20214;-78
2023/04/08 09:28:20;;;;;;;27.83;23.23;;;15.30;99.90;;;;;;4992954;28;20286;-77
2023/04/08 09:30:46;;;;;;;32.10;24.97;;;15.30;99.90;;;;;;4992412;28;20185;-78
2023/04/08 09:33:13;;;;;;;32.57;26.10;;;15.20;99.90;;;;;;4991729;28;20574;-77
2023/04/08 09:35:38;;;;;;;36.67;25.50;;;15.20;99.90;;;;;;4990930;28;20585;-77
2023/04/08 09:38:04;;;;;;;35.60;25.50;;;15.20;99.90;;;;;;4990373;28;20175;-77
2023/04/08 09:40:35;;;;;;;40.53;29.97;;;15.20;99.90;;;;;;4991394;28;20191;-77
2023/04/08 09:43:04;;;;;;;39.83;28.70;;;15.10;99.90;;;;;;4991924;28;20677;-78
2023/04/08 09:45:34;;;;;;;35.50;25.47;;;15.20;99.90;;;;;;4990922;28;20708;-77
2023/04/08 09:48:11;;;;;;;36.00;26.50;;;15.20;99.90;;;;;;4990403;28;20590;-76
2023/04/08 09:50:42;;;;;;;50.40;30.40;;;15.30;99.90;;;;;;4984670;28;20633;-77
2023/04/08 09:53:18;;;;;;;43.33;33.03;;;15.40;99.90;;;;;;4991082;28;20585;-76
2023/04/08 09:55:50;;;;;;;49.07;32.00;;;15.40;99.90;;;;;;4958468;28;20624;-77
2023/04/08 09:58:26;;;;;;;42.37;30.00;;;15.60;99.90;;;;;;4974241;28;20689;-77
2023/04/08 10:00:54;;;;;;;43.03;30.40;;;15.60;99.90;;;;;;4991685;28;20664;-77
2023/04/08 10:03:29;;;;;;;42.10;31.77;;;15.80;99.90;;;;;;4974283;28;20606;-77
2023/04/08 10:05:57;;;;;;;41.27;30.60;;;15.90;99.90;;;;;;4974119;28;20922;-77
2023/04/08 10:08:24;;;;;;;40.70;30.40;;;16.10;99.90;;;;;;4958601;28;20636;-77
2023/04/08 10:10:50;;;;;;;35.97;28.40;;;16.20;99.90;;;;;;4990858;28;21037;-77
2023/04/08 10:13:17;;;;;;;39.37;30.33;;;16.40;99.90;;;;;;4974017;28;21260;-76
2023/04/08 10:15:44;;;;;;;32.60;25.90;;;16.50;99.90;;;;;;4991419;28;20594;-76
2023/04/08 10:18:10;;;;;;;35.13;27.33;;;16.60;99.90;;;;;;4974496;28;20574;-77
2023/04/08 10:20:36;;;;;;;31.90;25.70;;;16.80;99.90;;;;;;4973989;28;21189;-76
2023/04/08 10:23:06;;;;;;;36.53;28.40;;;16.90;99.90;;;;;;4991508;28;20263;-75
2023/04/08 10:25:37;;;;;;;34.10;27.90;;;17.00;99.90;;;;;;4991074;28;21275;-75
2023/04/08 10:28:16;;;;;;;33.60;29.97;;;17.00;99.90;;;;;;4991560;28;20577;-76
2023/04/08 10:30:49;;;;;;;32.97;28.93;;;17.00;99.90;;;;;;4990045;28;21180;-76
2023/04/08 10:33:33;;;;;;;31.63;27.93;;;17.00;99.90;;;;;;4991468;28;20983;-76
2023/04/08 10:36:10;;;;;;;28.07;25.20;;;16.90;99.90;;;;;;4973728;28;20614;-76
2023/04/08 10:38:37;;;;;;;28.60;25.50;;;16.90;99.90;;;;;;4991595;28;20578;-76
2023/04/08 10:41:03;;;;;;;25.83;23.37;;;16.80;99.90;;;;;;4989887;28;20700;-76
2023/04/08 10:43:35;;;;;;;25.00;22.40;;;16.80;99.90;;;;;;4973534;28;20597;-76
2023/04/08 10:46:03;;;;;;;25.90;23.33;;;16.70;99.90;;;;;;4988439;28;20614;-77
2023/04/08 10:48:29;;;;;;;25.13;22.83;;;16.60;99.90;;;;;;4972060;28;20614;-76
2023/04/08 10:51:03;;;;;;;26.27;23.90;;;16.60;99.90;;;;;;4973343;28;20634;-76
2023/04/08 10:53:31;;;;;;;24.67;22.37;;;16.60;99.90;;;;;;4984153;28;20752;-76
2023/04/08 10:56:14;;;;;;;23.83;21.57;;;16.70;99.90;;;;;;4993092;28;20987;-76
2023/04/08 10:58:53;;;;;;;22.33;20.23;;;16.70;99.90;;;;;;5009924;28;20582;-76
2023/04/08 11:01:19;;;;;;;25.23;22.77;;;16.60;99.90;;;;;;4992798;28;21103;-76
2023/04/08 11:03:45;;;;;;;23.10;20.80;;;16.60;99.90;;;;;;4975161;28;20605;-76
2023/04/08 11:06:10;;;;;;;23.27;21.17;;;16.50;99.90;;;;;;4976244;28;21059;-76
2023/04/08 11:08:37;;;;;;;19.93;18.13;;;16.40;99.90;;;;;;4977543;28;20578;-76
2023/04/08 11:11:07;;;;;;;18.33;16.70;;;16.40;99.90;;;;;;4994004;28;21160;-77
2023/04/08 11:13:35;;;;;;;20.77;18.57;;;16.40;99.90;;;;;;4977223;28;20627;-77
2023/04/08 11:16:01;;;;;;;23.20;20.80;;;16.50;99.90;;;;;;4994397;28;20572;-77
2023/04/08 11:18:28;;;;;;;24.87;22.47;;;16.50;99.90;;;;;;4994622;28;20581;-77
2023/04/08 11:20:54;;;;;;;29.13;23.90;;;16.50;99.90;;;;;;4993359;28;21177;-78
2023/04/08 11:23:21;;;;;;;24.33;21.73;;;16.50;99.90;;;;;;4979945;28;20593;-76
2023/04/08 11:25:47;;;;;;;25.00;21.63;;;16.40;99.90;;;;;;4976832;28;20687;-76
2023/04/08 11:28:13;;;;;;;26.13;23.27;;;16.40;99.90;;;;;;4995029;28;20601;-77
2023/04/08 11:30:40;;;;;;;28.40;25.37;;;16.40;99.90;;;;;;4960471;28;20626;-75
2023/04/08 11:33:09;;;;;;;24.27;21.67;;;16.40;99.90;;;;;;4993885;28;20673;-74
2023/04/08 11:35:40;;;;;;;27.60;24.57;;;16.50;99.90;;;;;;4979232;28;21173;-78
2023/04/08 11:38:07;;;;;;;31.10;24.03;;;16.60;99.90;;;;;;4976632;28;20593;-78
2023/04/08 11:40:32;;;;;;;27.43;24.00;;;16.70;99.90;;;;;;4976730;28;21266;-77
2023/04/08 11:42:58;;;;;;;27.57;23.20;;;16.70;99.90;;;;;;4975779;28;20609;-78
2023/04/08 11:45:24;;;;;;;34.00;28.40;;;16.70;99.90;;;;;;4993969;28;20210;-77
2023/04/08 11:47:50;;;;;;;32.67;26.00;;;16.70;99.90;;;;;;4976371;28;20578;-78
2023/04/08 11:50:23;;;;;;;30.23;24.73;;;16.60;99.90;;;;;;4976655;28;20194;-77
2023/04/08 11:52:50;;;;;;;30.00;25.97;;;16.60;99.90;;;;;;4993133;28;20570;-78
2023/04/08 11:55:30;;;;;;;31.60;26.77;;;16.60;99.90;;;;;;4976385;28;20605;-77
2023/04/08 11:58:04;;;;;;;28.53;23.77;;;16.50;99.90;;;;;;4956914;28;20591;-76
2023/04/08 12:00:31;;;;;;;35.60;27.40;;;16.40;99.90;;;;;;4974581;28;20666;-77
2023/04/08 12:02:57;;;;;;;34.97;26.97;;;16.40;99.90;;;;;;4972228;28;20567;-76
2023/04/08 12:05:23;;;;;;;33.33;26.33;;;16.30;99.90;;;;;;4973538;28;20633;-76
2023/04/08 12:07:49;;;;;;;31.93;24.97;;;16.30;99.90;;;;;;4989480;28;20670;-76
2023/04/08 12:10:15;;;;;;;34.33;24.97;;;16.30;99.90;;;;;;4973611;28;20290;-76
2023/04/08 12:12:40;;;;;;;31.40;21.70;;;16.30;99.90;;;;;;4974737;28;20571;-75
2023/04/08 12:15:07;;;;;;;29.27;21.10;;;16.20;99.90;;;;;;4973899;28;20203;-77
2023/04/08 12:17:33;;;;;;;26.73;20.50;;;16.20;99.90;;;;;;4972998;28;20213;-76
2023/04/08 12:19:59;;;;;;;24.23;19.77;;;16.10;99.90;;;;;;4982295;28;20660;-75
2023/04/08 12:22:26;;;;;;;28.23;20.40;;;16.00;99.90;;;;;;4993293;28;20988;-76
2023/04/08 12:24:52;;;;;;;22.83;17.40;;;16.00;99.90;;;;;;4975873;28;20669;-77
2023/04/08 12:27:17;;;;;;;25.13;19.70;;;16.00;99.90;;;;;;4992985;28;20586;-76
2023/04/08 12:29:44;;;;;;;29.80;21.87;;;16.00;99.90;;;;;;4993402;28;20206;-77